createdAt,value
2018-09-02T00:00:37.572Z,15.20
2018-09-02T00:03:08.275Z,15.16
2018-09-02T00:05:38.936Z,15.18
2018-09-02T00:08:09.573Z,15.19
2018-09-02T00:10:40.265Z,15.16
2018-09-02T00:13:10.900Z,15.19
2018-09-02T00:15:41.563Z,15.18
2018-09-02T00:18:12.243Z,15.14
2018-09-02T00:20:42.965Z,15.07
2018-09-02T00:23:13.664Z,15.08
2018-09-02T00:25:44.366Z,15.01
2018-09-02T00:28:15.069Z,14.95
2018-09-02T00:30:45.736Z,14.93
2018-09-02T00:33:16.432Z,14.89
2018-09-02T00:35:47.035Z,14.91
2018-09-02T00:38:17.736Z,14.84
2018-09-02T00:40:48.405Z,14.87
2018-09-02T00:43:19.077Z,14.89
2018-09-02T00:45:49.788Z,14.85
2018-09-02T00:48:20.504Z,14.81
2018-09-02T00:50:51.163Z,14.74
2018-09-02T00:53:21.822Z,14.74
2018-09-02T00:55:52.534Z,14.70
2018-09-02T00:58:23.276Z,14.69
2018-09-02T01:00:53.926Z,14.65
2018-09-02T01:03:24.615Z,14.61
2018-09-02T01:05:55.353Z,14.59
2018-09-02T01:08:26.036Z,14.58
2018-09-02T01:10:56.731Z,14.66
2018-09-02T01:13:27.394Z,14.58
2018-09-02T01:15:58.136Z,14.59
2018-09-02T01:18:28.817Z,14.56
2018-09-02T01:20:59.496Z,14.53
2018-09-02T01:23:30.178Z,14.47
2018-09-02T01:26:00.869Z,14.46
2018-09-02T01:28:31.540Z,14.47
2018-09-02T01:31:02.241Z,14.37
2018-09-02T01:33:32.920Z,14.33
2018-09-02T01:36:03.598Z,14.35
2018-09-02T01:38:34.250Z,14.31
2018-09-02T01:41:04.925Z,14.29
2018-09-02T01:43:35.621Z,14.29
2018-09-02T01:46:06.549Z,14.30
2018-09-02T01:48:37.253Z,14.20
2018-09-02T01:51:08.201Z,14.14
2018-09-02T01:53:38.931Z,14.11
2018-09-02T01:56:09.727Z,14.10
2018-09-02T01:58:40.537Z,14.01
2018-09-02T02:01:11.233Z,13.92
2018-09-02T02:03:41.856Z,13.96
2018-09-02T02:06:12.615Z,13.94
2018-09-02T02:08:43.257Z,13.94
2018-09-02T02:11:14.014Z,13.90
2018-09-02T02:13:44.698Z,13.91
2018-09-02T02:16:15.431Z,13.85
2018-09-02T02:18:46.086Z,13.82
2018-09-02T02:21:16.793Z,13.86
2018-09-02T02:23:47.469Z,13.78
2018-09-02T02:26:18.176Z,13.78
2018-09-02T02:28:48.889Z,13.71
2018-09-02T02:31:19.547Z,13.64
2018-09-02T02:33:50.208Z,13.59
2018-09-02T02:36:20.881Z,13.61
2018-09-02T02:38:51.552Z,13.57
2018-09-02T02:41:22.254Z,13.60
2018-09-02T02:43:52.955Z,13.51
2018-09-02T02:46:23.680Z,13.47
2018-09-02T02:48:54.361Z,13.44
2018-09-02T02:51:25.081Z,13.40
2018-09-02T02:53:55.824Z,13.36
2018-09-02T02:56:26.613Z,13.39
2018-09-02T02:58:57.313Z,13.37
2018-09-02T03:01:28.002Z,13.39
2018-09-02T03:03:58.670Z,13.35
2018-09-02T03:06:29.373Z,13.30
2018-09-02T03:09:00.101Z,13.22
2018-09-02T03:11:30.844Z,13.20
2018-09-02T03:14:01.500Z,13.25
2018-09-02T03:16:32.215Z,13.20
2018-09-02T03:19:02.915Z,13.18
2018-09-02T03:21:33.613Z,13.22
2018-09-02T03:24:04.432Z,13.19
2018-09-02T03:26:35.159Z,13.15
2018-09-02T03:29:06.051Z,13.11
2018-09-02T03:31:36.736Z,13.05
2018-09-02T03:34:07.433Z,13.10
2018-09-02T03:36:38.129Z,13.11
2018-09-02T03:39:08.889Z,13.04
2018-09-02T03:41:39.584Z,13.01
2018-09-02T03:44:10.319Z,13.01
2018-09-02T03:46:40.975Z,13.02
2018-09-02T03:49:11.781Z,12.97
2018-09-02T03:51:42.408Z,12.94
2018-09-02T03:54:13.127Z,12.94
2018-09-02T03:56:43.805Z,12.90
2018-09-02T03:59:14.490Z,12.84
2018-09-02T04:01:45.211Z,12.88
2018-09-02T04:04:15.879Z,12.86
2018-09-02T04:06:46.597Z,12.88
2018-09-02T04:09:17.299Z,12.84
2018-09-02T04:11:48.020Z,12.82
2018-09-02T04:14:18.739Z,12.81
2018-09-02T04:16:49.403Z,12.75
2018-09-02T04:19:20.125Z,12.75
2018-09-02T04:21:50.786Z,12.75
2018-09-02T04:24:21.530Z,12.78
2018-09-02T04:26:52.287Z,12.76
2018-09-02T04:29:23.000Z,12.71
2018-09-02T04:31:53.723Z,12.69
2018-09-02T04:34:24.452Z,12.73
2018-09-02T04:36:55.191Z,12.72
2018-09-02T04:39:25.861Z,12.65
2018-09-02T04:41:56.566Z,12.62
2018-09-02T04:44:27.207Z,12.61
2018-09-02T04:46:57.878Z,12.59
2018-09-02T04:49:28.512Z,12.56
2018-09-02T04:51:59.200Z,12.54
2018-09-02T04:54:29.943Z,12.62
2018-09-02T04:57:00.555Z,12.67
2018-09-02T04:59:31.265Z,12.63
2018-09-02T05:02:02.014Z,12.61
2018-09-02T05:04:32.635Z,12.67
2018-09-02T05:07:03.363Z,12.68
2018-09-02T05:09:34.004Z,12.54
2018-09-02T05:12:04.730Z,12.55
2018-09-02T05:14:35.365Z,12.56
2018-09-02T05:17:06.340Z,12.59
2018-09-02T05:19:36.979Z,12.62
2018-09-02T05:22:07.692Z,12.69
2018-09-02T05:24:38.392Z,12.73
2018-09-02T05:27:09.040Z,12.73
2018-09-02T05:29:39.776Z,12.84
2018-09-02T05:32:10.405Z,12.86
2018-09-02T05:34:41.072Z,12.86
2018-09-02T05:37:11.685Z,12.97
2018-09-02T05:39:42.356Z,13.01
2018-09-02T05:42:13.164Z,13.04
2018-09-02T05:44:43.986Z,13.14
2018-09-02T05:47:14.680Z,13.19
2018-09-02T05:49:45.357Z,13.24
2018-09-02T05:52:15.960Z,13.39
2018-09-02T05:54:56.630Z,13.56
2018-09-02T05:57:32.621Z,13.77
2018-09-02T06:00:08.544Z,13.93
2018-09-02T06:02:44.366Z,14.03
2018-09-02T06:05:24.774Z,14.18
2018-09-02T06:08:00.806Z,14.32
2018-09-02T06:10:36.663Z,14.45
2018-09-02T06:13:12.743Z,14.68
2018-09-02T06:15:48.766Z,14.76
2018-09-02T06:18:24.888Z,14.87
2018-09-02T06:21:00.846Z,14.98
2018-09-02T06:23:36.689Z,15.09
2018-09-02T06:26:12.648Z,15.16
2018-09-02T06:28:48.643Z,15.23
2018-09-02T06:31:24.526Z,15.35
2018-09-02T06:34:00.502Z,15.41
2018-09-02T06:36:36.586Z,15.61
2018-09-02T06:39:13.169Z,15.67
2018-09-02T06:41:49.506Z,15.79
2018-09-02T06:44:25.604Z,15.97
2018-09-02T06:47:01.480Z,16.10
2018-09-02T06:49:37.504Z,16.23
2018-09-02T06:52:13.472Z,16.35
2018-09-02T06:54:49.428Z,16.55
2018-09-02T06:57:25.411Z,16.79
2018-09-02T07:00:01.417Z,16.90
2018-09-02T07:02:37.267Z,17.08
2018-09-02T07:05:13.243Z,17.28
2018-09-02T07:07:49.123Z,17.41
2018-09-02T07:10:25.203Z,17.73
2018-09-02T07:13:01.281Z,17.86
2018-09-02T07:15:37.092Z,18.04
2018-09-02T07:18:13.024Z,18.24
2018-09-02T07:20:48.970Z,18.48
2018-09-02T07:23:24.947Z,18.34
2018-09-02T07:26:00.798Z,18.43
2018-09-02T07:28:36.829Z,18.40
2018-09-02T07:31:12.811Z,18.38
2018-09-02T07:33:48.739Z,18.62
2018-09-02T07:36:24.745Z,18.89
2018-09-02T07:39:00.920Z,19.18
2018-09-02T07:41:37.585Z,19.35
2018-09-02T07:44:13.596Z,19.54
2018-09-02T07:46:49.601Z,19.85
2018-09-02T07:49:25.516Z,20.04
2018-09-02T07:52:01.552Z,20.15
2018-09-02T07:54:37.765Z,20.46
2018-09-02T07:57:14.001Z,20.42
2018-09-02T07:59:50.067Z,20.60
2018-09-02T08:02:26.120Z,20.78
2018-09-02T08:05:02.041Z,21.18
2018-09-02T08:07:38.050Z,21.41
2018-09-02T08:10:14.096Z,21.76
2018-09-02T08:12:50.266Z,21.65
2018-09-02T08:15:26.094Z,21.66
2018-09-02T08:18:02.077Z,21.40
2018-09-02T08:20:37.943Z,21.53
2018-09-02T08:23:14.023Z,21.64
2018-09-02T08:25:50.051Z,21.91
2018-09-02T08:28:26.053Z,21.89
2018-09-02T08:31:02.109Z,22.09
2018-09-02T08:33:38.136Z,21.88
2018-09-02T08:36:13.924Z,22.09
2018-09-02T08:38:49.933Z,22.29
2018-09-02T08:41:26.135Z,22.53
2018-09-02T08:44:02.091Z,22.60
2018-09-02T08:46:38.548Z,22.35
2018-09-02T08:49:14.584Z,22.41
2018-09-02T08:51:50.668Z,22.52
2018-09-02T08:54:26.784Z,22.87
2018-09-02T08:57:02.806Z,23.18
2018-09-02T08:59:38.779Z,23.45
2018-09-02T09:02:14.823Z,23.99
2018-09-02T09:04:52.703Z,24.52
2018-09-02T09:07:30.181Z,24.73
2018-09-02T09:10:07.148Z,24.91
2018-09-02T09:12:43.152Z,24.79
2018-09-02T09:15:19.106Z,24.69
2018-09-02T09:17:55.136Z,24.29
2018-09-02T09:20:31.145Z,24.35
2018-09-02T09:23:07.136Z,24.56
2018-09-02T09:25:43.064Z,24.69
2018-09-02T09:28:18.949Z,24.83
2018-09-02T09:30:54.948Z,24.88
2018-09-02T09:33:30.930Z,24.85
2018-09-02T09:36:06.867Z,24.97
2018-09-02T09:38:42.771Z,24.59
2018-09-02T09:41:18.772Z,24.77
2018-09-02T09:43:54.815Z,24.97
2018-09-02T09:46:30.771Z,24.83
2018-09-02T09:49:06.805Z,24.89
2018-09-02T09:51:42.742Z,25.10
2018-09-02T09:54:18.672Z,25.58
2018-09-02T09:56:54.589Z,25.67
2018-09-02T09:59:30.434Z,25.57
2018-09-02T10:02:06.246Z,25.82
2018-09-02T10:04:42.211Z,25.67
2018-09-02T10:07:18.104Z,25.64
2018-09-02T10:09:54.180Z,25.80
2018-09-02T10:12:30.139Z,25.99
2018-09-02T10:15:06.088Z,26.35
2018-09-02T10:17:41.928Z,26.30
2018-09-02T10:20:17.765Z,26.18
2018-09-02T10:22:53.702Z,25.81
2018-09-02T10:25:29.558Z,25.82
2018-09-02T10:28:05.644Z,25.94
2018-09-02T10:30:41.553Z,26.05
2018-09-02T10:33:17.748Z,26.00
2018-09-02T10:35:53.503Z,26.48
2018-09-02T10:38:29.590Z,26.85
2018-09-02T10:41:05.752Z,26.83
2018-09-02T10:43:41.618Z,27.17
2018-09-02T10:46:17.517Z,27.62
2018-09-02T10:48:53.567Z,27.95
2018-09-02T10:51:29.616Z,28.11
2018-09-02T10:54:06.247Z,28.22
2018-09-02T10:56:42.264Z,28.14
2018-09-02T10:59:18.165Z,28.27
2018-09-02T11:01:54.127Z,28.32
2018-09-02T11:04:30.180Z,28.41
2018-09-02T11:07:06.265Z,28.19
2018-09-02T11:09:42.158Z,28.55
2018-09-02T11:12:18.052Z,28.38
2018-09-02T11:14:54.034Z,28.14
2018-09-02T11:17:30.022Z,27.64
2018-09-02T11:20:06.049Z,27.87
2018-09-02T11:22:41.982Z,27.61
2018-09-02T11:25:17.868Z,27.13
2018-09-02T11:27:53.800Z,27.34
2018-09-02T11:30:29.716Z,27.88
2018-09-02T11:33:05.754Z,28.35
2018-09-02T11:35:41.784Z,28.31
2018-09-02T11:38:17.757Z,28.53
2018-09-02T11:40:53.809Z,28.57
2018-09-02T11:43:29.772Z,28.81
2018-09-02T11:46:06.453Z,28.72
2018-09-02T11:48:42.321Z,28.91
2018-09-02T11:51:18.304Z,28.81
2018-09-02T11:53:54.253Z,29.11
2018-09-02T11:56:30.310Z,29.00
2018-09-02T11:59:06.561Z,29.01
2018-09-02T12:01:42.420Z,29.30
2018-09-02T12:04:18.513Z,29.60
2018-09-02T12:06:54.328Z,29.75
2018-09-02T12:09:30.320Z,30.19
2018-09-02T12:12:06.391Z,30.46
2018-09-02T12:14:42.433Z,30.38
2018-09-02T12:17:18.573Z,29.85
2018-09-02T12:19:54.699Z,29.84
2018-09-02T12:22:31.095Z,30.13
2018-09-02T12:25:07.377Z,30.06
2018-09-02T12:27:43.395Z,29.89
2018-09-02T12:30:19.319Z,30.13
2018-09-02T12:32:55.377Z,30.60
2018-09-02T12:35:31.495Z,30.83
2018-09-02T12:38:07.866Z,30.91
2018-09-02T12:40:44.010Z,30.87
2018-09-02T12:43:20.037Z,30.89
2018-09-02T12:45:56.306Z,30.76
2018-09-02T12:48:32.560Z,30.64
2018-09-02T12:51:08.609Z,30.48
2018-09-02T12:53:44.726Z,30.20
2018-09-02T12:56:20.959Z,30.48
2018-09-02T12:58:56.954Z,30.94
2018-09-02T13:01:33.095Z,30.95
2018-09-02T13:04:09.239Z,31.00
2018-09-02T13:06:45.289Z,31.06
2018-09-02T13:09:21.521Z,30.81
2018-09-02T13:11:57.612Z,30.64
2018-09-02T13:14:33.699Z,30.65
2018-09-02T13:17:09.728Z,30.55
2018-09-02T13:19:45.687Z,30.56
2018-09-02T13:22:21.897Z,30.63
2018-09-02T13:24:57.636Z,30.79
2018-09-02T13:27:33.631Z,31.02
2018-09-02T13:30:10.879Z,30.73
2018-09-02T13:32:46.898Z,30.71
2018-09-02T13:35:22.736Z,30.98
2018-09-02T13:37:58.694Z,30.57
2018-09-02T13:40:34.633Z,30.52
2018-09-02T13:43:10.525Z,30.48
2018-09-02T13:45:46.515Z,30.69
2018-09-02T13:48:22.506Z,30.88
2018-09-02T13:50:58.360Z,30.84
2018-09-02T13:53:34.268Z,30.98
2018-09-02T13:56:10.206Z,31.04
2018-09-02T13:58:46.021Z,30.91
2018-09-02T14:01:22.036Z,31.05
2018-09-02T14:03:57.934Z,31.08
2018-09-02T14:06:33.995Z,31.23
2018-09-02T14:09:10.288Z,31.27
2018-09-02T14:11:46.187Z,31.03
2018-09-02T14:14:22.268Z,30.79
2018-09-02T14:16:58.548Z,30.93
2018-09-02T14:19:36.366Z,30.82
2018-09-02T14:22:12.719Z,30.75
2018-09-02T14:24:50.761Z,30.98
2018-09-02T14:27:27.104Z,31.21
2018-09-02T14:30:03.522Z,30.84
2018-09-02T14:32:39.613Z,30.92
2018-09-02T14:35:15.983Z,31.10
2018-09-02T14:37:52.668Z,30.85
2018-09-02T14:40:29.396Z,30.88
2018-09-02T14:43:07.705Z,30.83
2018-09-02T14:45:43.888Z,30.83
2018-09-02T14:48:21.459Z,30.72
2018-09-02T14:50:58.664Z,30.51
2018-09-02T14:53:34.629Z,30.35
2018-09-02T14:56:10.901Z,30.15
2018-09-02T14:58:47.696Z,30.28
2018-09-02T15:01:25.384Z,30.37
2018-09-02T15:04:02.490Z,30.38
2018-09-02T15:06:39.328Z,30.24
2018-09-02T15:09:17.072Z,30.00
2018-09-02T15:11:52.921Z,29.91
2018-09-02T15:14:29.993Z,29.94
2018-09-02T15:17:06.611Z,30.01
2018-09-02T15:19:43.488Z,30.00
2018-09-02T15:22:19.579Z,30.10
2018-09-02T15:24:55.540Z,30.03
2018-09-02T15:27:32.127Z,29.91
2018-09-02T15:30:09.116Z,29.67
2018-09-02T15:32:45.219Z,29.35
2018-09-02T15:35:21.413Z,29.27
2018-09-02T15:37:57.932Z,29.33
2018-09-02T15:40:33.850Z,28.93
2018-09-02T15:43:09.837Z,28.50
2018-09-02T15:45:45.880Z,28.33
2018-09-02T15:48:21.903Z,28.36
2018-09-02T15:50:58.488Z,28.46
2018-09-02T15:53:34.842Z,28.57
2018-09-02T15:56:10.828Z,28.60
2018-09-02T15:58:46.688Z,28.07
2018-09-02T16:01:22.671Z,27.77
2018-09-02T16:03:58.772Z,27.83
2018-09-02T16:06:34.702Z,27.91
2018-09-02T16:09:12.089Z,28.04
2018-09-02T16:11:48.210Z,28.09
2018-09-02T16:14:24.561Z,27.88
2018-09-02T16:17:00.415Z,27.45
2018-09-02T16:19:36.416Z,27.08
2018-09-02T16:22:12.470Z,26.77
2018-09-02T16:24:48.387Z,26.47
2018-09-02T16:27:24.619Z,26.26
2018-09-02T16:30:01.131Z,26.02
2018-09-02T16:32:37.969Z,25.90
2018-09-02T16:35:14.664Z,25.75
2018-09-02T16:37:51.872Z,25.59
2018-09-02T16:40:28.603Z,25.47
2018-09-02T16:43:05.545Z,25.29
2018-09-02T16:45:41.413Z,25.13
2018-09-02T16:48:17.423Z,25.04
2018-09-02T16:50:53.417Z,24.88
2018-09-02T16:53:29.258Z,24.66
2018-09-02T16:56:05.259Z,24.51
2018-09-02T16:58:41.345Z,24.34
2018-09-02T17:01:17.314Z,24.11
2018-09-02T17:03:58.482Z,23.95
2018-09-02T17:06:34.472Z,23.76
2018-09-02T17:09:11.920Z,23.68
2018-09-02T17:11:48.161Z,23.56
2018-09-02T17:14:24.144Z,23.53
2018-09-02T17:17:00.232Z,23.45
2018-09-02T17:19:38.624Z,23.36
2018-09-02T17:22:14.606Z,23.35
2018-09-02T17:24:50.557Z,23.32
2018-09-02T17:27:26.659Z,23.33
2018-09-02T17:30:02.637Z,23.24
2018-09-02T17:32:38.619Z,23.25
2018-09-02T17:35:14.636Z,23.20
2018-09-02T17:37:50.488Z,23.09
2018-09-02T17:40:26.433Z,23.05
2018-09-02T17:43:02.617Z,22.94
2018-09-02T17:45:38.749Z,22.93
2018-09-02T17:48:14.787Z,22.91
2018-09-02T17:50:50.655Z,22.87
2018-09-02T17:53:26.512Z,22.69
2018-09-02T17:56:02.515Z,22.63
2018-09-02T17:58:38.449Z,22.55
2018-09-02T18:01:14.432Z,22.54
2018-09-02T18:03:50.285Z,22.47
2018-09-02T18:06:26.192Z,22.31
2018-09-02T18:09:02.259Z,22.38
2018-09-02T18:11:38.369Z,22.26
2018-09-02T18:14:14.405Z,22.20
2018-09-02T18:16:50.357Z,22.13
2018-09-02T18:19:26.348Z,22.06
2018-09-02T18:22:02.352Z,21.95
2018-09-02T18:24:38.601Z,21.92
2018-09-02T18:27:15.936Z,21.89
2018-09-02T18:29:56.970Z,21.93
2018-09-02T18:32:32.995Z,21.78
2018-09-02T18:35:09.065Z,21.66
2018-09-02T18:37:45.057Z,21.57
2018-09-02T18:40:21.046Z,21.57
2018-09-02T18:42:57.098Z,21.60
2018-09-02T18:45:33.136Z,21.63
2018-09-02T18:48:09.120Z,21.60
2018-09-02T18:50:45.663Z,21.55
2018-09-02T18:53:21.743Z,21.42
2018-09-02T18:55:58.034Z,21.40
2018-09-02T18:58:34.209Z,21.28
2018-09-02T19:01:13.078Z,21.23
2018-09-02T19:03:49.115Z,21.25
2018-09-02T19:06:25.309Z,21.19
2018-09-02T19:09:01.550Z,21.12
2018-09-02T19:11:37.613Z,21.12
2018-09-02T19:14:13.583Z,21.11
2018-09-02T19:16:49.415Z,21.03
2018-09-02T19:19:25.506Z,21.14
2018-09-02T19:22:01.616Z,20.99
2018-09-02T19:24:37.664Z,21.00
2018-09-02T19:27:13.793Z,20.99
2018-09-02T19:29:49.799Z,20.99
2018-09-02T19:32:25.757Z,20.98
2018-09-02T19:35:01.822Z,21.01
2018-09-02T19:37:37.818Z,20.91
2018-09-02T19:40:14.312Z,20.92
2018-09-02T19:42:50.305Z,20.89
2018-09-02T19:45:26.347Z,20.85
2018-09-02T19:48:02.372Z,20.81
2018-09-02T19:50:38.303Z,20.75
2018-09-02T19:53:14.367Z,20.79
2018-09-02T19:55:50.304Z,20.81
2018-09-02T19:58:26.557Z,20.78
2018-09-02T20:01:02.577Z,20.75
2018-09-02T20:03:38.680Z,20.72
2018-09-02T20:06:14.528Z,20.74
2018-09-02T20:08:50.569Z,20.72
2018-09-02T20:11:26.731Z,20.80
2018-09-02T20:14:02.504Z,20.79
2018-09-02T20:16:38.956Z,20.76
2018-09-02T20:19:15.050Z,20.78
2018-09-02T20:21:51.048Z,20.82
2018-09-02T20:24:27.024Z,20.81
2018-09-02T20:27:02.897Z,20.79
2018-09-02T20:29:39.546Z,20.75
2018-09-02T20:32:15.426Z,20.68
2018-09-02T20:34:51.486Z,20.72
2018-09-02T20:37:27.458Z,20.69
2018-09-02T20:40:03.480Z,20.70
2018-09-02T20:42:39.596Z,20.69
2018-09-02T20:45:15.529Z,20.64
2018-09-02T20:47:51.324Z,20.69
2018-09-02T20:50:27.301Z,20.65
2018-09-02T20:53:03.472Z,20.63
2018-09-02T20:55:39.393Z,20.69
2018-09-02T20:58:15.538Z,20.60
2018-09-02T21:00:51.371Z,20.67
2018-09-02T21:03:27.777Z,20.55
2018-09-02T21:06:03.804Z,20.49
2018-09-02T21:08:39.679Z,20.43
2018-09-02T21:11:15.709Z,20.51
2018-09-02T21:13:51.664Z,20.54
2018-09-02T21:16:27.551Z,20.47
2018-09-02T21:19:03.565Z,20.37
2018-09-02T21:21:39.444Z,20.37
2018-09-02T21:24:15.416Z,20.40
2018-09-02T21:26:51.400Z,20.37
2018-09-02T21:29:27.303Z,20.32
2018-09-02T21:32:03.431Z,20.32
2018-09-02T21:34:39.491Z,20.35
2018-09-02T21:37:15.704Z,20.36
2018-09-02T21:39:51.708Z,20.29
2018-09-02T21:42:27.499Z,20.30
2018-09-02T21:45:03.289Z,20.27
2018-09-02T21:47:39.199Z,20.26
2018-09-02T21:50:15.319Z,20.26
2018-09-02T21:52:51.318Z,20.31
2018-09-02T21:55:27.396Z,20.20
2018-09-02T21:58:03.386Z,20.18
2018-09-02T22:00:41.494Z,20.19
2018-09-02T22:03:17.324Z,20.12
2018-09-02T22:05:53.360Z,20.11
2018-09-02T22:08:29.170Z,20.08
2018-09-02T22:11:05.108Z,20.10
2018-09-02T22:13:40.946Z,20.10
2018-09-02T22:16:16.929Z,20.07
2018-09-02T22:18:53.173Z,20.06
2018-09-02T22:21:29.259Z,20.09
2018-09-02T22:24:05.306Z,20.13
2018-09-02T22:26:41.301Z,20.13
2018-09-02T22:29:17.339Z,20.02
2018-09-02T22:31:53.238Z,19.98
2018-09-02T22:34:29.237Z,19.96
2018-09-02T22:37:05.252Z,19.94
2018-09-02T22:39:41.102Z,19.90
2018-09-02T22:42:17.179Z,19.89
2018-09-02T22:44:53.052Z,19.81
2018-09-02T22:47:29.032Z,19.81
2018-09-02T22:50:05.090Z,19.83
2018-09-02T22:52:41.251Z,19.78
2018-09-02T22:55:17.132Z,19.71
2018-09-02T22:57:53.209Z,19.71
2018-09-02T23:00:29.220Z,19.74
2018-09-02T23:03:05.290Z,19.76
2018-09-02T23:05:41.160Z,19.87
2018-09-02T23:08:17.139Z,19.82
2018-09-02T23:10:52.978Z,19.76
2018-09-02T23:13:28.924Z,19.73
2018-09-02T23:16:05.003Z,19.77
2018-09-02T23:18:40.995Z,19.75
2018-09-02T23:21:17.000Z,19.77
2018-09-02T23:23:52.980Z,19.76
2018-09-02T23:26:28.940Z,19.77
2018-09-02T23:29:05.117Z,19.75
2018-09-02T23:31:41.003Z,19.72
2018-09-02T23:34:16.912Z,19.73
2018-09-02T23:36:52.739Z,19.71
2018-09-02T23:39:28.652Z,19.69
2018-09-02T23:42:04.521Z,19.67
2018-09-02T23:44:40.239Z,19.69
2018-09-02T23:47:16.331Z,19.68
2018-09-02T23:49:52.292Z,19.66
2018-09-02T23:52:28.316Z,19.63
2018-09-02T23:55:04.492Z,19.61
2018-09-02T23:57:40.359Z,19.65
